Time;durP1;ratioP1;P1;durP2;ratioP2;P2;SDS_P1;SDS_P2;PMS_P1;PMS_P2;Temp;Humidity;BMP_temperature;BMP_pressure;BME280_temperature;BME280_humidity;BME280_pressure;Samples;Min_cycle;Max_cycle;Signal;HPM_P1;HPM_P2
2022/11/14 00:00:07;;;;;;;7.60;6.33;;;17.10;66.30;18.10;100731.00;;;;5009128;28;20652;-48
2022/11/14 00:02:33;;;;;;;6.80;6.03;;;17.10;66.30;18.00;100733.00;;;;5009077;28;20237;-50
2022/11/14 00:04:58;;;;;;;7.10;6.40;;;17.10;66.30;18.00;100731.00;;;;5009049;28;20219;-50
2022/11/14 00:07:24;;;;;;;6.87;6.27;;;17.00;66.20;18.00;100725.00;;;;5009118;28;20183;-50
2022/11/14 00:09:50;;;;;;;7.00;6.33;;;17.00;66.20;18.00;100731.00;;;;5009035;28;20174;-52
2022/11/14 00:12:16;;;;;;;6.63;6.03;;;17.00;66.20;18.00;100729.00;;;;5009066;28;20264;-51
2022/11/14 00:14:41;;;;;;;6.70;6.10;;;17.00;66.20;17.90;100737.00;;;;5008535;28;20214;-50
2022/11/14 00:17:07;;;;;;;7.13;6.43;;;17.00;66.30;17.90;100741.00;;;;5008919;28;20179;-50
2022/11/14 00:19:33;;;;;;;6.83;6.13;;;17.00;66.30;17.90;100730.00;;;;5008773;28;20183;-51
2022/11/14 00:21:59;;;;;;;6.53;5.93;;;16.90;66.20;17.90;100727.00;;;;5010356;28;20232;-51
2022/11/14 00:24:24;;;;;;;6.33;5.73;;;16.90;66.40;17.90;100736.00;;;;5010557;28;20807;-53
2022/11/14 00:26:50;;;;;;;6.20;5.60;;;16.90;66.10;17.90;100734.00;;;;5008463;28;20175;-51
2022/11/14 00:29:16;;;;;;;6.47;5.87;;;16.90;66.30;17.90;100734.00;;;;5008589;28;20236;-50
2022/11/14 00:31:42;;;;;;;6.37;5.77;;;16.90;66.30;17.80;100731.00;;;;5008019;28;20695;-52
2022/11/14 00:34:08;;;;;;;6.70;6.10;;;16.90;66.40;17.80;100724.00;;;;5008428;28;20202;-51
2022/11/14 00:36:33;;;;;;;6.30;5.80;;;16.80;66.20;17.80;100719.00;;;;4990705;28;20190;-50
2022/11/14 00:38:59;;;;;;;5.93;5.43;;;16.80;66.00;17.80;100716.00;;;;5008412;28;20178;-50
2022/11/14 00:41:25;;;;;;;6.57;5.97;;;16.80;66.90;17.80;100719.00;;;;4974290;28;20224;-52
2022/11/14 00:43:50;;;;;;;6.60;5.90;;;16.80;66.10;17.70;100712.00;;;;5008379;28;20186;-51
2022/11/14 00:46:16;;;;;;;6.60;6.00;;;16.80;66.40;17.70;100721.00;;;;5008335;28;20215;-51
2022/11/14 00:48:43;;;;;;;6.40;5.80;;;16.80;66.10;17.70;100710.00;;;;5008207;28;20256;-51
2022/11/14 00:51:08;;;;;;;6.27;5.67;;;16.80;66.50;17.70;100713.00;;;;5007944;28;20720;-50
2022/11/14 00:53:34;;;;;;;6.60;5.73;;;16.80;66.10;17.70;100704.00;;;;5008339;28;20221;-50
2022/11/14 00:56:00;;;;;;;7.00;5.60;;;16.80;66.10;17.70;100702.00;;;;4990154;28;20218;-50
2022/11/14 00:58:26;;;;;;;5.80;5.30;;;16.70;66.70;17.70;100707.00;;;;5008148;28;20596;-50
2022/11/14 01:00:52;;;;;;;7.03;5.90;;;16.70;65.90;17.70;100697.00;;;;5008097;28;20174;-51
2022/11/14 01:03:17;;;;;;;5.90;5.30;;;16.70;65.60;17.60;100700.00;;;;5007763;28;20690;-51
2022/11/14 01:05:46;;;;;;;5.93;5.20;;;16.60;65.40;17.60;100698.00;;;;5008104;28;20253;-52
2022/11/14 01:08:13;;;;;;;7.27;5.23;;;16.50;64.30;17.60;100695.00;;;;5008387;28;20250;-52
2022/11/14 01:10:44;;;;;;;5.60;5.10;;;16.50;64.30;17.50;100690.00;;;;5008074;28;20331;-50
2022/11/14 01:13:10;;;;;;;5.37;4.87;;;16.40;63.80;17.50;100692.00;;;;5007872;28;20190;-52
2022/11/14 01:15:44;;;;;;;6.53;5.30;;;16.40;63.50;17.50;100609.00;;;;5008273;28;20177;-51
2022/11/14 01:18:12;;;;;;;5.67;5.17;;;16.40;62.90;17.50;100680.00;;;;5007879;28;20184;-49
2022/11/14 01:20:42;;;;;;;5.63;5.07;;;16.30;62.70;17.50;100681.00;;;;5008101;28;20173;-49
2022/11/14 01:23:08;;;;;;;7.20;5.17;;;16.30;62.60;17.50;100675.00;;;;4990756;28;20319;-50
2022/11/14 01:25:35;;;;;;;5.03;4.63;;;16.30;62.50;17.50;100672.00;;;;4990185;28;20176;-50
2022/11/14 01:28:04;;;;;;;7.20;4.90;;;16.30;61.80;17.40;100668.00;;;;5007767;28;20172;-49
2022/11/14 01:30:30;;;;;;;5.20;4.80;;;16.30;61.70;17.40;100668.00;;;;4990697;28;20685;-50
2022/11/14 01:32:55;;;;;;;5.00;4.50;;;16.20;61.50;17.40;100669.00;;;;5007867;28;20181;-50
2022/11/14 01:35:21;;;;;;;5.30;4.73;;;16.20;61.50;17.40;100652.00;;;;5007650;28;20283;-50
2022/11/14 01:37:47;;;;;;;5.20;4.70;;;16.20;60.90;17.30;100651.00;;;;5007830;28;20177;-50
2022/11/14 01:40:12;;;;;;;5.00;4.50;;;16.10;60.50;17.30;100653.00;;;;5008186;28;20684;-51
2022/11/14 01:42:38;;;;;;;5.00;4.50;;;16.10;59.80;17.30;100649.00;;;;5009334;28;20550;-51
2022/11/14 01:46:00;;;;;;;5.17;4.47;;;16.10;60.60;17.30;100650.00;;;;5007322;28;20192;-51
2022/11/14 01:48:37;;;;;;;7.20;4.70;;;16.10;61.20;17.20;100645.00;;;;5003994;28;20219;-51
2022/11/14 01:51:14;;;;;;;9.53;4.77;;;16.10;60.40;17.10;100642.00;;;;5007770;28;20190;-52
2022/11/14 01:53:40;;;;;;;4.77;4.10;;;16.10;60.10;17.10;100640.00;;;;4991513;28;20214;-51
2022/11/14 01:56:06;;;;;;;4.90;4.40;;;16.00;59.80;17.10;100636.00;;;;4974116;28;20201;-51
2022/11/14 01:58:33;;;;;;;6.60;4.53;;;16.00;59.70;17.00;100645.00;;;;4990138;28;20632;-50
2022/11/14 02:00:58;;;;;;;5.40;4.47;;;16.00;59.50;17.00;100627.00;;;;4990431;28;20335;-52
2022/11/14 02:03:24;;;;;;;4.93;4.53;;;16.00;59.80;16.70;100634.00;;;;4990030;28;20192;-51
2022/11/14 02:05:50;;;;;;;4.33;3.93;;;16.00;59.80;17.00;100627.00;;;;4990088;28;20171;-53
2022/11/14 02:08:15;;;;;;;4.50;4.10;;;16.00;59.50;16.80;100637.00;;;;4993680;28;20556;-51
2022/11/14 02:10:41;;;;;;;4.50;4.10;;;16.00;59.70;17.00;100627.00;;;;4977262;28;20179;-50
2022/11/14 02:13:07;;;;;;;4.50;4.10;;;15.90;59.40;16.90;100624.00;;;;5010728;28;20634;-54
2022/11/14 02:15:33;;;;;;;4.27;3.87;;;15.90;59.20;16.90;100628.00;;;;4993557;28;20267;-52
2022/11/14 02:18:00;;;;;;;5.10;4.60;;;15.90;59.40;16.90;100643.00;;;;4993228;28;20203;-52
2022/11/14 02:20:27;;;;;;;4.83;4.30;;;15.90;59.10;16.90;100637.00;;;;4993412;28;20725;-51
2022/11/14 02:22:53;;;;;;;4.40;4.00;;;15.90;59.10;16.90;100629.00;;;;5010384;28;20211;-51
2022/11/14 02:25:18;;;;;;;4.50;4.10;;;15.80;58.90;16.80;100628.00;;;;4993025;28;20199;-50
2022/11/14 02:27:44;;;;;;;4.53;4.13;;;15.80;59.00;16.80;100627.00;;;;4993267;28;20172;-50
2022/11/14 02:30:22;;;;;;;4.83;4.37;;;15.80;58.80;16.80;100635.00;;;;5010657;28;20175;-50
2022/11/14 02:32:47;;;;;;;4.90;4.40;;;15.80;59.00;16.80;100627.00;;;;5010648;28;20201;-51
2022/11/14 02:35:13;;;;;;;5.30;4.40;;;15.80;58.80;16.70;100627.00;;;;5010193;28;20334;-51
2022/11/14 02:37:39;;;;;;;4.83;4.10;;;15.80;58.70;16.70;100639.00;;;;5010907;28;20180;-50
2022/11/14 02:40:05;;;;;;;4.50;4.10;;;15.70;58.70;16.70;100615.00;;;;5010617;28;20254;-51
2022/11/14 02:42:31;;;;;;;4.00;3.70;;;15.80;58.80;16.70;100633.00;;;;5010168;28;20210;-49
2022/11/14 02:44:57;;;;;;;4.20;3.90;;;15.80;58.90;16.70;100626.00;;;;5010237;28;20195;-50
2022/11/14 02:47:25;;;;;;;4.47;4.10;;;15.70;58.80;16.80;100640.00;;;;4993049;28;20538;-49
2022/11/14 02:49:51;;;;;;;4.33;3.93;;;15.70;58.90;16.70;100623.00;;;;5010309;28;20168;-50
2022/11/14 02:52:17;;;;;;;4.37;4.03;;;15.70;58.80;16.70;100624.00;;;;5010207;28;20203;-50
2022/11/14 02:54:42;;;;;;;4.23;3.83;;;15.70;58.60;16.70;100624.00;;;;5010061;28;20208;-51
2022/11/14 02:57:08;;;;;;;4.03;3.73;;;15.70;58.70;16.60;100619.00;;;;5010424;28;20187;-52
2022/11/14 02:59:34;;;;;;;4.10;3.70;;;15.70;58.60;16.60;100625.00;;;;5010496;28;20175;-51
2022/11/14 03:02:00;;;;;;;4.30;4.00;;;15.60;58.40;16.60;100619.00;;;;5009829;28;20887;-51
2022/11/14 03:04:25;;;;;;;6.33;4.13;;;15.60;58.80;16.60;100621.00;;;;5009900;28;20555;-51
2022/11/14 03:06:51;;;;;;;4.03;3.73;;;15.60;58.40;16.50;100619.00;;;;5010007;28;20172;-51
2022/11/14 03:09:17;;;;;;;4.10;3.80;;;15.60;58.60;16.50;100616.00;;;;5009774;28;20230;-50
2022/11/14 03:11:43;;;;;;;4.53;4.20;;;15.60;58.30;16.40;100614.00;;;;5011354;28;20176;-51
2022/11/14 03:14:08;;;;;;;4.30;3.87;;;15.50;58.30;16.40;100608.00;;;;5010213;28;20962;-51
2022/11/14 03:16:34;;;;;;;4.40;4.00;;;15.50;58.20;16.30;100605.00;;;;5009934;28;20194;-53
2022/11/14 03:19:00;;;;;;;4.30;4.00;;;15.50;58.40;16.40;100597.00;;;;5008605;28;20532;-51
2022/11/14 03:21:26;;;;;;;4.43;4.03;;;15.50;58.40;16.30;100604.00;;;;5009834;28;20214;-51
2022/11/14 03:23:51;;;;;;;4.43;4.03;;;15.50;58.60;16.30;100601.00;;;;4992271;28;20358;-49
2022/11/14 03:26:17;;;;;;;4.57;3.80;;;15.50;58.40;16.30;100606.00;;;;5009588;28;20194;-50
2022/11/14 03:28:43;;;;;;;4.57;4.10;;;15.40;58.20;16.30;100595.00;;;;5009797;28;20187;-52
2022/11/14 03:31:10;;;;;;;4.40;4.00;;;15.40;58.10;16.20;100604.00;;;;5010000;28;20294;-49
2022/11/14 03:33:36;;;;;;;4.20;3.80;;;15.40;58.10;16.20;100592.00;;;;5009445;28;20261;-52
2022/11/14 03:36:02;;;;;;;3.73;3.43;;;15.40;58.00;16.20;100579.00;;;;5009504;28;20560;-51
2022/11/14 03:38:28;;;;;;;4.30;3.90;;;15.40;57.90;16.10;100577.00;;;;4991945;28;20184;-52
2022/11/14 03:40:54;;;;;;;4.20;3.80;;;15.40;57.90;16.10;100501.00;;;;5009813;28;20746;-52
2022/11/14 03:43:20;;;;;;;3.87;3.57;;;15.30;57.80;16.10;100566.00;;;;5009552;28;20291;-50
2022/11/14 03:45:46;;;;;;;4.20;3.80;;;15.30;58.00;16.10;100578.00;;;;5009463;28;20187;-50
2022/11/14 03:48:12;;;;;;;4.03;3.63;;;15.30;57.80;16.10;100582.00;;;;5009362;28;20163;-51
2022/11/14 03:50:38;;;;;;;4.27;3.87;;;15.30;58.10;16.10;100571.00;;;;5009287;28;20175;-51
2022/11/14 03:53:04;;;;;;;4.37;3.97;;;15.30;58.30;16.10;100571.00;;;;5009047;28;20183;-51
2022/11/14 03:55:30;;;;;;;3.60;3.30;;;15.20;57.80;16.10;100571.00;;;;5009060;28;20203;-50
2022/11/14 03:57:56;;;;;;;4.10;3.80;;;15.20;58.10;16.10;100563.00;;;;4991499;28;20291;-50
2022/11/14 04:00:21;;;;;;;3.93;3.63;;;15.20;57.90;16.00;100569.00;;;;5008958;28;20184;-51
2022/11/14 04:02:47;;;;;;;4.30;3.77;;;15.20;58.10;16.00;100568.00;;;;5008869;28;20211;-49
2022/11/14 04:05:13;;;;;;;4.67;3.93;;;15.20;57.70;16.00;100564.00;;;;5009205;28;20263;-49
2022/11/14 04:07:39;;;;;;;4.30;3.90;;;15.10;57.70;16.00;100567.00;;;;5009031;28;20210;-50
2022/11/14 04:10:05;;;;;;;4.03;3.73;;;15.10;57.70;15.90;100567.00;;;;5008788;28;20545;-49
2022/11/14 04:12:31;;;;;;;4.03;3.73;;;15.10;57.70;15.90;100565.00;;;;5008840;28;20203;-50
2022/11/14 04:14:57;;;;;;;3.97;3.40;;;15.00;57.60;15.90;100560.00;;;;5008762;28;20584;-49
2022/11/14 04:17:22;;;;;;;4.30;3.93;;;15.00;57.50;15.90;100570.00;;;;5008532;28;20943;-49
2022/11/14 04:19:49;;;;;;;4.20;3.90;;;14.90;57.50;15.90;100565.00;;;;5008532;28;20176;-52
2022/11/14 04:22:15;;;;;;;4.13;3.80;;;14.90;57.60;15.90;100562.00;;;;5008244;28;20230;-49
2022/11/14 04:24:40;;;;;;;4.63;4.23;;;14.90;57.50;15.80;100562.00;;;;5008515;28;20199;-51
2022/11/14 04:27:06;;;;;;;4.40;4.00;;;14.90;57.50;15.80;100559.00;;;;5008497;28;20176;-50
2022/11/14 04:29:32;;;;;;;6.00;4.30;;;14.90;57.30;15.70;100466.00;;;;5008742;28;20250;-50
2022/11/14 04:31:57;;;;;;;5.03;4.10;;;14.90;57.20;15.50;100567.00;;;;5008153;28;20211;-50
2022/11/14 04:34:23;;;;;;;8.37;4.30;;;14.90;57.50;15.80;100553.00;;;;4990914;28;20231;-49
2022/11/14 04:36:52;;;;;;;4.67;4.00;;;14.90;57.90;15.80;100564.00;;;;5008559;28;20529;-50
2022/11/14 04:39:17;;;;;;;9.10;4.10;;;14.90;57.50;15.80;100558.00;;;;5008468;28;20250;-49
2022/11/14 04:41:43;;;;;;;5.37;3.93;;;14.90;57.60;15.80;100562.00;;;;4992223;28;20178;-50
2022/11/14 04:44:09;;;;;;;4.70;3.90;;;15.00;57.80;15.80;100557.00;;;;5009257;28;20648;-51
2022/11/14 04:46:34;;;;;;;7.53;3.80;;;15.00;58.10;15.90;100549.00;;;;4991356;28;20187;-50
2022/11/14 04:49:00;;;;;;;4.27;3.83;;;15.00;58.20;15.90;100552.00;;;;5006410;28;20195;-50
2022/11/14 04:51:26;;;;;;;6.13;4.20;;;15.00;58.20;15.90;100551.00;;;;5008326;28;20190;-50
2022/11/14 04:53:52;;;;;;;6.57;3.73;;;15.00;58.50;15.90;100566.00;;;;5007994;28;20250;-51
2022/11/14 04:56:17;;;;;;;6.27;4.10;;;15.00;58.50;15.90;100546.00;;;;5009035;28;20664;-52
2022/11/14 04:58:43;;;;;;;5.83;3.70;;;15.00;58.50;16.00;100550.00;;;;5008691;28;20538;-51
2022/11/14 05:01:10;;;;;;;4.00;3.70;;;15.00;58.60;15.90;100552.00;;;;5008544;28;20671;-51
2022/11/14 05:03:35;;;;;;;3.90;3.60;;;15.00;58.60;15.90;100545.00;;;;4990777;28;20209;-50
2022/11/14 05:06:01;;;;;;;4.27;3.87;;;15.00;58.70;16.00;100548.00;;;;5009009;28;20179;-51
2022/11/14 05:08:27;;;;;;;5.13;3.50;;;15.00;59.50;15.90;100540.00;;;;5008961;28;20175;-51
2022/11/14 05:10:53;;;;;;;5.77;3.93;;;15.00;58.80;15.90;100550.00;;;;5008595;28;20172;-50
2022/11/14 05:13:18;;;;;;;4.30;3.87;;;14.90;58.90;15.90;100540.00;;;;5008315;28;20420;-51
2022/11/14 05:15:44;;;;;;;6.07;3.50;;;14.90;58.90;16.00;100536.00;;;;5008480;28;20276;-50
2022/11/14 05:18:10;;;;;;;5.10;3.77;;;14.90;58.90;15.90;100530.00;;;;5008658;28;20180;-50
2022/11/14 05:20:35;;;;;;;4.30;3.47;;;14.90;58.90;15.90;100540.00;;;;5008339;28;20208;-51
2022/11/14 05:23:01;;;;;;;4.20;3.73;;;14.90;59.10;15.90;100547.00;;;;5008052;28;20230;-52
2022/11/14 05:25:27;;;;;;;4.37;3.20;;;14.90;59.20;15.90;100534.00;;;;5008522;28;20671;-51
2022/11/14 05:27:53;;;;;;;3.80;3.50;;;14.90;59.20;15.90;100532.00;;;;5008418;28;20167;-51
2022/11/14 05:30:18;;;;;;;5.60;3.60;;;14.90;59.40;15.90;100536.00;;;;5008125;28;20160;-51
2022/11/14 05:32:44;;;;;;;4.00;3.60;;;14.90;59.50;15.90;100525.00;;;;5007762;28;20545;-50
2022/11/14 05:35:10;;;;;;;5.90;3.93;;;14.90;59.70;15.90;100508.00;;;;5008644;28;20269;-52
2022/11/14 05:37:36;;;;;;;5.00;3.97;;;14.80;60.10;15.90;100519.00;;;;4991435;28;20271;-48
2022/11/14 05:40:03;;;;;;;4.10;3.70;;;14.80;60.60;15.90;100514.00;;;;5009575;28;20251;-50
2022/11/14 05:42:28;;;;;;;4.83;3.80;;;14.80;61.10;15.90;100521.00;;;;4992639;28;20212;-50
2022/11/14 05:44:54;;;;;;;5.03;4.00;;;14.80;61.20;15.90;100517.00;;;;5011971;28;20210;-50
2022/11/14 05:47:20;;;;;;;5.07;3.70;;;14.80;61.30;15.80;100514.00;;;;5012446;28;20713;-51
2022/11/14 05:49:45;;;;;;;4.67;3.70;;;14.80;61.80;15.80;100509.00;;;;5012115;28;20179;-49
2022/11/14 05:52:11;;;;;;;5.53;3.23;;;14.80;61.90;15.80;100503.00;;;;5011920;28;20172;-50
2022/11/14 05:54:37;;;;;;;4.53;3.83;;;14.80;62.20;15.80;100500.00;;;;5010683;28;20211;-49
2022/11/14 05:57:03;;;;;;;5.30;3.67;;;14.80;62.50;15.80;100503.00;;;;5012048;28;20222;-49
2022/11/14 05:59:28;;;;;;;4.83;3.40;;;14.80;62.50;15.80;100496.00;;;;5012083;28;20608;-51
2022/11/14 06:01:54;;;;;;;6.17;3.53;;;14.80;62.40;15.80;100485.00;;;;4994102;28;20187;-51
2022/11/14 06:04:20;;;;;;;10.20;4.43;;;14.80;62.30;15.80;100494.00;;;;5011688;28;20274;-52
2022/11/14 06:06:46;;;;;;;12.97;4.57;;;14.80;62.30;15.80;100486.00;;;;5011114;28;20171;-49
2022/11/14 06:09:11;;;;;;;11.10;4.57;;;14.80;62.30;15.80;100411.00;;;;5011130;28;20664;-49
2022/11/14 06:11:37;;;;;;;14.07;4.17;;;14.80;62.40;15.80;100489.00;;;;5012790;28;20182;-54
2022/11/14 06:14:03;;;;;;;10.60;3.90;;;14.70;62.40;15.80;100492.00;;;;5011872;28;20218;-50
2022/11/14 06:16:29;;;;;;;7.87;3.90;;;14.80;62.60;15.80;100497.00;;;;5011742;28;20180;-51
2022/11/14 06:18:54;;;;;;;9.53;4.30;;;14.80;62.60;15.80;100492.00;;;;5011846;28;20176;-52
2022/11/14 06:21:22;;;;;;;8.03;4.00;;;14.80;62.70;15.70;100492.00;;;;5011848;28;20553;-49
2022/11/14 06:23:47;;;;;;;9.93;4.07;;;14.70;62.60;15.70;100494.00;;;;5011201;28;20211;-50
2022/11/14 06:26:21;;;;;;;12.87;4.37;;;14.70;62.70;15.70;100501.00;;;;5011429;28;20176;-49
2022/11/14 06:28:48;;;;;;;9.73;4.40;;;14.70;62.70;15.70;100503.00;;;;5011835;28;20179;-52
2022/11/14 06:31:14;;;;;;;7.87;3.77;;;14.70;62.80;15.70;100493.00;;;;5010794;28;20187;-51
2022/11/14 06:33:40;;;;;;;9.00;4.00;;;14.70;62.80;15.70;100501.00;;;;5011004;28;20207;-51
2022/11/14 06:36:07;;;;;;;10.23;4.00;;;14.70;62.80;15.70;100499.00;;;;5011443;28;20258;-50
2022/11/14 06:38:35;;;;;;;6.07;3.93;;;14.70;62.80;15.70;100515.00;;;;4993833;28;20180;-50
2022/11/14 06:41:02;;;;;;;6.07;3.63;;;14.70;62.80;15.70;100496.00;;;;5011375;28;20183;-51
2022/11/14 06:43:28;;;;;;;6.97;3.40;;;14.70;62.80;15.70;100501.00;;;;5010695;28;20196;-50
2022/11/14 06:45:54;;;;;;;7.17;3.63;;;14.70;62.90;15.70;100502.00;;;;5011519;28;20172;-51
2022/11/14 06:48:20;;;;;;;5.27;3.53;;;14.60;62.80;15.60;100501.00;;;;4993512;28;20632;-50
2022/11/14 06:50:53;;;;;;;7.27;3.57;;;14.70;62.90;15.30;100502.00;;;;5011142;28;20172;-50
2022/11/14 06:53:19;;;;;;;5.80;3.60;;;14.60;62.90;15.60;100502.00;;;;4993102;28;20254;-50
2022/11/14 06:56:07;;;;;;;4.80;3.67;;;14.60;62.90;15.60;100509.00;;;;5011022;28;20274;-51
2022/11/14 06:58:40;;;;;;;8.53;3.90;;;14.60;62.90;15.60;100506.00;;;;5011061;28;20179;-51
2022/11/14 07:01:10;;;;;;;5.30;3.50;;;14.60;62.90;15.60;100511.00;;;;5010945;28;20168;-51
2022/11/14 07:03:36;;;;;;;5.93;3.53;;;14.60;62.90;15.60;100514.00;;;;4993364;28;20207;-51
2022/11/14 07:06:03;;;;;;;4.63;3.47;;;14.60;62.90;15.60;100514.00;;;;5010904;28;20214;-51
2022/11/14 07:08:28;;;;;;;4.73;3.50;;;14.60;63.00;15.60;100512.00;;;;5010983;28;20175;-51
2022/11/14 07:11:01;;;;;;;4.43;3.73;;;14.60;63.00;15.50;100517.00;;;;5010740;28;20176;-50
2022/11/14 07:13:27;;;;;;;4.50;3.60;;;14.50;63.10;15.50;100510.00;;;;5009975;28;20688;-51
2022/11/14 07:15:53;;;;;;;4.53;3.77;;;14.50;62.90;15.50;100521.00;;;;5010761;28;20250;-50
2022/11/14 07:18:19;;;;;;;4.87;3.60;;;14.50;63.10;15.50;100513.00;;;;5010412;28;20258;-51
2022/11/14 07:20:45;;;;;;;5.87;3.40;;;14.50;63.10;15.50;100510.00;;;;5010374;28;20220;-51
2022/11/14 07:23:10;;;;;;;4.57;3.30;;;14.50;63.20;15.50;100512.00;;;;5009773;28;20201;-52
2022/11/14 07:25:36;;;;;;;5.07;3.70;;;14.50;63.20;15.50;100511.00;;;;5010461;28;20172;-51
2022/11/14 07:28:02;;;;;;;5.27;3.60;;;14.50;63.20;15.50;100509.00;;;;5011403;28;20186;-51
2022/11/14 07:30:28;;;;;;;4.17;3.30;;;14.50;63.10;15.50;100503.00;;;;5010691;28;20180;-50
2022/11/14 07:32:57;;;;;;;5.23;3.43;;;14.50;63.10;15.50;100510.00;;;;5009552;28;20187;-51
2022/11/14 07:35:23;;;;;;;4.00;3.40;;;14.50;63.20;15.50;100505.00;;;;4993287;28;20278;-51
2022/11/14 07:37:49;;;;;;;4.87;3.63;;;14.50;63.20;15.50;100502.00;;;;5010411;28;20172;-51
2022/11/14 07:40:16;;;;;;;4.20;3.53;;;14.50;63.20;15.50;100504.00;;;;5010317;28;20179;-50
2022/11/14 07:42:41;;;;;;;5.10;3.50;;;14.50;63.40;15.50;100508.00;;;;4992216;28;20618;-51
2022/11/14 07:45:08;;;;;;;4.17;3.30;;;14.50;63.50;15.50;100509.00;;;;5010327;28;20191;-50
2022/11/14 07:47:33;;;;;;;4.73;3.40;;;14.50;63.50;15.40;100518.00;;;;5010171;28;20521;-51
2022/11/14 07:49:59;;;;;;;4.03;3.63;;;14.50;63.40;15.40;100513.00;;;;4992887;28;20178;-50
2022/11/14 07:52:25;;;;;;;4.30;3.40;;;14.50;63.40;15.40;100509.00;;;;5009765;28;20176;-51
2022/11/14 07:54:51;;;;;;;4.20;3.40;;;14.50;63.50;15.40;100507.00;;;;5009602;28;20215;-52
2022/11/14 07:57:16;;;;;;;3.40;3.10;;;14.50;63.50;15.40;100503.00;;;;5009822;28;20176;-50
2022/11/14 07:59:42;;;;;;;3.90;3.40;;;14.50;63.50;15.40;100506.00;;;;5009802;28;20796;-50
2022/11/14 08:02:14;;;;;;;3.83;3.43;;;14.50;63.50;15.40;100503.00;;;;5009216;28;20207;-48
2022/11/14 08:04:40;;;;;;;3.87;3.30;;;14.50;63.60;15.40;100508.00;;;;5008879;28;20253;-50
2022/11/14 08:07:06;;;;;;;3.80;3.27;;;14.50;63.50;15.40;100506.00;;;;4992174;28;20262;-50
2022/11/14 08:09:32;;;;;;;4.03;3.50;;;14.40;63.40;15.40;100501.00;;;;5008752;28;20172;-50
2022/11/14 08:11:58;;;;;;;3.70;3.20;;;14.40;63.40;15.40;100498.00;;;;5009295;28;20183;-50
2022/11/14 08:14:24;;;;;;;5.50;3.60;;;14.40;63.40;15.40;100488.00;;;;5009517;28;20428;-51
2022/11/14 08:16:49;;;;;;;3.57;3.27;;;14.40;63.50;15.30;100498.00;;;;5009059;28;20167;-50
2022/11/14 08:19:16;;;;;;;3.80;3.10;;;14.40;63.40;15.30;100498.00;;;;5009737;28;20540;-52
2022/11/14 08:21:42;;;;;;;3.83;3.17;;;14.40;63.40;15.30;100494.00;;;;5009234;28;20195;-50
2022/11/14 08:24:08;;;;;;;3.47;3.10;;;14.40;63.40;15.30;100485.00;;;;5009130;28;20203;-50
2022/11/14 08:26:34;;;;;;;4.13;3.30;;;14.40;63.40;15.30;100484.00;;;;5008438;28;20274;-49
2022/11/14 08:29:00;;;;;;;4.93;3.30;;;14.40;63.40;15.30;100480.00;;;;5008878;28;20886;-50
2022/11/14 08:31:25;;;;;;;4.40;3.77;;;14.40;63.40;15.30;100475.00;;;;5008844;28;20179;-53
2022/11/14 08:33:51;;;;;;;4.90;3.73;;;14.40;63.40;15.30;100476.00;;;;5009639;28;20531;-51
2022/11/14 08:36:17;;;;;;;4.07;3.73;;;14.30;63.30;15.30;100477.00;;;;5009797;28;20255;-50
2022/11/14 08:38:43;;;;;;;4.60;3.70;;;14.30;63.30;15.30;100468.00;;;;5009400;28;20784;-51
2022/11/14 08:41:09;;;;;;;4.10;3.70;;;14.30;63.30;15.30;100468.00;;;;5009124;28;20164;-50
2022/11/14 08:43:34;;;;;;;4.03;3.63;;;14.30;63.40;15.30;100461.00;;;;5008425;28;20219;-50
2022/11/14 08:46:02;;;;;;;3.97;3.57;;;14.30;63.30;15.30;100459.00;;;;5008902;28;20168;-49
2022/11/14 08:48:28;;;;;;;4.00;3.60;;;14.30;63.30;15.30;100466.00;;;;4990147;28;20180;-50
2022/11/14 08:50:53;;;;;;;4.10;3.70;;;14.30;63.30;15.30;100465.00;;;;5009023;28;20542;-51
2022/11/14 08:53:19;;;;;;;3.93;3.63;;;14.30;63.30;15.30;100460.00;;;;4991349;28;20175;-52
2022/11/14 08:55:46;;;;;;;4.43;3.73;;;14.30;63.30;15.30;100467.00;;;;4988848;28;20262;-49
2022/11/14 08:58:11;;;;;;;5.27;3.77;;;14.30;64.10;15.30;100461.00;;;;4952837;28;20748;-50
2022/11/14 09:00:37;;;;;;;3.93;3.57;;;14.30;63.40;15.30;100466.00;;;;5008785;28;20255;-49
2022/11/14 09:03:13;;;;;;;3.87;3.47;;;14.30;63.30;15.20;100473.00;;;;5008481;28;20210;-49
2022/11/14 09:05:39;;;;;;;3.83;3.53;;;14.30;63.30;15.20;100460.00;;;;4992051;28;20518;-51
2022/11/14 09:08:05;;;;;;;4.17;3.70;;;14.30;63.40;15.20;100470.00;;;;5008759;28;20190;-51
2022/11/14 09:10:30;;;;;;;4.87;3.70;;;14.30;63.30;15.20;100469.00;;;;5008300;28;20163;-52
2022/11/14 09:12:57;;;;;;;4.37;3.80;;;14.30;63.30;15.30;100468.00;;;;5007935;28;20207;-51
2022/11/14 09:15:22;;;;;;;4.17;3.80;;;14.30;63.30;15.20;100465.00;;;;4991224;28;20261;-51
2022/11/14 09:17:52;;;;;;;4.00;3.70;;;14.30;63.30;15.30;100474.00;;;;5011898;28;20171;-52
2022/11/14 09:20:18;;;;;;;5.33;3.70;;;14.30;63.30;15.20;100470.00;;;;5013138;28;20171;-51
2022/11/14 09:22:44;;;;;;;4.13;3.53;;;14.30;64.00;15.30;100468.00;;;;5012949;28;20695;-50
2022/11/14 09:25:10;;;;;;;4.03;3.63;;;14.30;64.10;15.30;100476.00;;;;5012702;28;20227;-49
2022/11/14 09:27:36;;;;;;;4.40;3.57;;;14.30;64.30;15.30;100478.00;;;;5013046;28;20195;-49
2022/11/14 09:30:01;;;;;;;4.50;3.70;;;14.30;64.50;15.40;100471.00;;;;5012839;28;20725;-48
2022/11/14 09:32:27;;;;;;;5.80;3.90;;;14.30;64.50;15.40;100475.00;;;;5012715;28;20194;-51
2022/11/14 09:34:53;;;;;;;6.00;3.60;;;14.40;64.60;15.40;100481.00;;;;5012632;28;20699;-50
2022/11/14 09:37:18;;;;;;;7.10;3.97;;;14.30;64.40;15.40;100462.00;;;;4995177;28;20221;-51
2022/11/14 09:39:44;;;;;;;6.03;3.90;;;14.30;64.20;15.40;100468.00;;;;5012090;28;20230;-48
2022/11/14 09:42:27;;;;;;;5.23;3.83;;;14.30;64.30;15.30;100458.00;;;;5012486;28;20235;-48
2022/11/14 09:44:57;;;;;;;5.87;4.30;;;14.30;64.30;15.40;100468.00;;;;4994933;28;20198;-51
2022/11/14 09:47:32;;;;;;;4.47;3.93;;;14.30;64.40;15.40;100451.00;;;;5011602;28;20168;-51
2022/11/14 09:50:14;;;;;;;4.63;4.00;;;14.40;64.60;15.40;100470.00;;;;4979246;28;20166;-50
2022/11/14 09:52:46;;;;;;;7.67;3.87;;;14.50;64.60;15.40;100463.00;;;;4995581;28;20184;-49
2022/11/14 09:55:29;;;;;;;4.33;3.93;;;14.60;64.50;15.50;100470.00;;;;4995550;28;20271;-50
2022/11/14 09:57:55;;;;;;;5.07;4.07;;;14.70;64.20;15.50;100472.00;;;;4927771;28;20172;-51
2022/11/14 10:00:23;;;;;;;4.50;3.77;;;14.80;63.80;15.60;100462.00;;;;4991530;28;20552;-49
2022/11/14 10:03:34;;;;;;;5.07;3.70;;;15.00;64.00;15.70;100474.00;;;;4992522;28;20188;-48
2022/11/14 10:06:09;;;;;;;8.17;4.00;;;15.10;63.60;15.80;100464.00;;;;4999475;28;20262;-49
2022/11/14 10:09:24;;;;;;;11.40;3.87;;;15.30;63.50;15.90;100377.00;;;;5012618;28;20281;-50
2022/11/14 10:12:34;;;;;;;6.80;4.10;;;15.40;63.70;16.00;100448.00;;;;4986168;28;20637;-51
2022/11/14 10:15:14;;;;;;;7.60;4.03;;;15.60;63.40;16.10;100439.00;;;;4981342;28;20207;-49
2022/11/14 10:18:32;;;;;;;7.57;3.97;;;15.80;63.20;16.30;100427.00;;;;4994367;28;20180;-51
2022/11/14 10:21:06;;;;;;;10.30;3.50;;;16.10;63.00;16.40;100427.00;;;;4982847;28;20230;-49
2022/11/14 10:24:17;;;;;;;8.17;3.70;;;16.30;62.70;16.60;100440.00;;;;4979169;28;20215;-50
2022/11/14 10:27:04;;;;;;;6.37;3.80;;;16.50;62.80;16.70;100431.00;;;;4996623;28;20179;-50
2022/11/14 10:30:02;;;;;;;4.47;3.37;;;16.60;63.10;16.80;100437.00;;;;5011736;28;20763;-49
2022/11/14 10:33:14;;;;;;;7.63;3.50;;;16.70;62.80;17.00;100426.00;;;;4980238;28;20633;-50
2022/11/14 10:35:44;;;;;;;7.13;3.77;;;16.90;62.90;17.10;100427.00;;;;4993587;28;20736;-50
2022/11/14 10:38:34;;;;;;;10.17;3.97;;;17.00;62.60;17.20;100420.00;;;;4993758;28;20258;-50
2022/11/14 10:41:03;;;;;;;9.77;4.00;;;17.10;64.50;17.30;100428.00;;;;4993495;28;20180;-49
2022/11/14 10:43:44;;;;;;;6.93;3.60;;;17.20;65.10;17.50;100431.00;;;;4977592;28;20721;-51
2022/11/14 10:46:47;;;;;;;8.90;3.87;;;17.30;65.50;17.60;100426.00;;;;5011030;28;20199;-50
2022/11/14 10:49:18;;;;;;;8.60;4.07;;;17.40;66.20;17.70;100436.00;;;;5013432;28;20226;-50
2022/11/14 10:51:49;;;;;;;7.80;3.87;;;17.50;66.50;17.80;100441.00;;;;4972252;28;20173;-51